Time;durP1;ratioP1;P1;durP2;ratioP2;P2;SDS_P1;SDS_P2;PMS_P1;PMS_P2;Temp;Humidity;BMP_temperature;BMP_pressure;BME280_temperature;BME280_humidity;BME280_pressure;Samples;Min_cycle;Max_cycle;Signal;HPM_P1;HPM_P2
2023/01/27 00:01:06;;;;;;;12.15;9.20;;;4.70;99.90;;;;;;5093698;28;20069;-70
2023/01/27 00:03:32;;;;;;;13.88;9.40;;;4.70;99.90;;;;;;5096681;28;20047;-69
2023/01/27 00:06:00;;;;;;;11.65;8.90;;;4.70;99.90;;;;;;5095169;28;20054;-69
2023/01/27 00:08:26;;;;;;;14.32;9.43;;;4.70;99.90;;;;;;5092640;28;20054;-70
2023/01/27 00:13:25;;;;;;;11.95;9.32;;;4.70;99.90;;;;;;5090933;28;20058;-69
2023/01/27 00:13:43;;;;;;;10.70;8.40;;;4.60;99.90;;;;;;5095434;28;20047;-72
2023/01/27 00:16:08;;;;;;;10.10;8.50;;;4.60;99.90;;;;;;5090586;28;20507;-71
2023/01/27 00:18:34;;;;;;;13.13;9.30;;;4.60;99.90;;;;;;5113432;27;20079;-70
2023/01/27 00:26:29;;;;;;;13.07;8.68;;;4.60;99.90;;;;;;5090630;28;20090;-70
2023/01/27 00:28:54;;;;;;;9.70;8.68;;;4.60;99.90;;;;;;5092332;28;20135;-70
2023/01/27 00:34:10;;;;;;;13.43;9.48;;;4.60;99.90;;;;;;5090343;28;20098;-71
2023/01/27 00:36:41;;;;;;;11.95;8.73;;;4.60;99.90;;;;;;5097142;28;20054;-71
2023/01/27 00:39:08;;;;;;;9.38;8.13;;;4.60;99.90;;;;;;5093080;28;20101;-70
2023/01/27 00:41:34;;;;;;;11.73;9.88;;;4.60;99.90;;;;;;5096334;28;20372;-71
2023/01/27 00:44:00;;;;;;;9.82;7.93;;;4.60;99.90;;;;;;5096647;28;20043;-72
2023/01/27 00:46:26;;;;;;;8.45;7.65;;;4.60;99.90;;;;;;5089785;28;20044;-70
2023/01/27 00:48:52;;;;;;;9.98;7.10;;;4.60;99.90;;;;;;5091219;28;20106;-70
2023/01/27 00:51:18;;;;;;;8.88;6.82;;;4.60;99.90;;;;;;5086081;28;20095;-71
2023/01/27 00:53:44;;;;;;;9.68;7.07;;;4.70;99.90;;;;;;5082655;28;20152;-71
2023/01/27 00:56:11;;;;;;;7.15;5.68;;;4.70;99.90;;;;;;5098157;28;20731;-72
2023/01/27 00:58:37;;;;;;;8.77;6.72;;;4.70;99.90;;;;;;5097167;28;20081;-69
2023/01/27 01:01:07;;;;;;;9.13;7.32;;;4.60;99.90;;;;;;5095201;28;20062;-71
2023/01/27 01:03:34;;;;;;;10.85;7.80;;;4.70;99.90;;;;;;5077519;28;20048;-71
2023/01/27 01:06:03;;;;;;;11.15;7.70;;;4.80;99.90;;;;;;5077894;28;20048;-71
2023/01/27 01:08:30;;;;;;;10.73;7.38;;;4.70;99.90;;;;;;5084495;28;20048;-69
2023/01/27 01:10:56;;;;;;;9.77;6.78;;;4.80;99.90;;;;;;5088826;28;20040;-71
2023/01/27 01:13:22;;;;;;;7.75;6.55;;;4.80;99.90;;;;;;5078213;28;20486;-70
2023/01/27 01:15:47;;;;;;;7.13;5.85;;;4.80;99.90;;;;;;5094061;28;20138;-71
2023/01/27 01:18:13;;;;;;;8.68;5.22;;;4.70;99.90;;;;;;5090910;28;20044;-71
2023/01/27 01:20:46;;;;;;;6.80;5.03;;;4.70;99.90;;;;;;5088240;28;20077;-73
2023/01/27 01:23:13;;;;;;;8.52;4.82;;;4.70;99.90;;;;;;5103632;28;20047;-72
2023/01/27 01:25:39;;;;;;;8.80;4.20;;;4.70;99.90;;;;;;5089273;28;20062;-72
2023/01/27 01:28:06;;;;;;;6.35;4.53;;;4.70;99.90;;;;;;5092297;28;20389;-71
2023/01/27 01:30:36;;;;;;;7.18;4.15;;;4.70;99.90;;;;;;5085254;28;20047;-71
2023/01/27 01:33:02;;;;;;;5.65;4.05;;;4.70;99.90;;;;;;5085421;28;20054;-71
2023/01/27 01:35:28;;;;;;;8.07;3.83;;;4.80;99.90;;;;;;5097638;28;20047;-72
2023/01/27 01:37:54;;;;;;;4.97;4.45;;;4.70;99.90;;;;;;5095361;28;20052;-72
2023/01/27 01:40:21;;;;;;;6.10;4.15;;;4.70;99.90;;;;;;5092146;28;20070;-72
2023/01/27 01:42:51;;;;;;;6.50;4.40;;;4.70;99.90;;;;;;5096052;28;20051;-71
2023/01/27 01:45:32;;;;;;;3.83;3.17;;;4.80;99.90;;;;;;5090783;28;20436;-72
2023/01/27 01:48:01;;;;;;;5.68;4.00;;;4.30;99.90;;;;;;5096326;28;20135;-71
2023/01/27 01:50:27;;;;;;;8.75;3.88;;;4.80;99.90;;;;;;5096012;28;20128;-69
2023/01/27 01:52:53;;;;;;;4.07;3.70;;;4.80;99.90;;;;;;5098094;28;20886;-69
2023/01/27 01:55:20;;;;;;;4.93;3.38;;;4.80;99.90;;;;;;5082467;28;20082;-71
2023/01/27 01:57:46;;;;;;;5.53;3.42;;;4.80;99.90;;;;;;5086125;28;20433;-70
2023/01/27 02:00:12;;;;;;;8.30;3.30;;;4.80;99.90;;;;;;5080197;28;20859;-69
2023/01/27 02:02:39;;;;;;;4.07;3.45;;;4.80;99.90;;;;;;5094012;28;20632;-72
2023/01/27 02:05:09;;;;;;;4.55;3.10;;;4.80;99.90;;;;;;5080202;28;20515;-70
2023/01/27 02:07:50;;;;;;;5.10;3.63;;;4.90;99.90;;;;;;5082319;28;20060;-71
2023/01/27 02:10:15;;;;;;;3.25;2.90;;;4.90;99.90;;;;;;5101383;28;20055;-69
2023/01/27 02:12:41;;;;;;;3.80;3.03;;;4.90;99.90;;;;;;5086065;28;20052;-70
2023/01/27 02:15:08;;;;;;;5.03;2.92;;;4.90;99.90;;;;;;5102536;28;20569;-69
2023/01/27 02:17:35;;;;;;;4.85;3.08;;;4.90;99.90;;;;;;5088575;28;20587;-70
2023/01/27 02:20:13;;;;;;;3.53;2.80;;;5.00;99.90;;;;;;5098343;27;20531;-69
2023/01/27 02:23:00;;;;;;;3.75;2.80;;;5.00;99.90;;;;;;5088315;28;20861;-71
2023/01/27 02:25:34;;;;;;;2.72;2.35;;;5.00;99.90;;;;;;5100016;28;20047;-70
2023/01/27 02:28:06;;;;;;;3.88;2.63;;;5.00;99.90;;;;;;5099894;28;20047;-71
2023/01/27 02:30:33;;;;;;;4.53;2.57;;;5.00;99.90;;;;;;5094688;28;20142;-69
2023/01/27 02:32:58;;;;;;;3.80;2.72;;;5.00;99.90;;;;;;5098456;28;20725;-71
2023/01/27 02:35:38;;;;;;;2.72;2.28;;;4.90;99.90;;;;;;5097852;28;20047;-69
2023/01/27 02:38:05;;;;;;;4.05;3.28;;;4.90;99.90;;;;;;5099433;28;20412;-71
2023/01/27 02:40:32;;;;;;;3.25;2.13;;;4.90;99.90;;;;;;5086719;28;20055;-70
2023/01/27 02:42:59;;;;;;;3.92;2.38;;;4.90;99.90;;;;;;5092605;28;20068;-73
2023/01/27 02:45:25;;;;;;;4.93;2.80;;;4.90;99.90;;;;;;5099585;28;20656;-71
2023/01/27 02:47:51;;;;;;;3.22;2.40;;;4.90;99.90;;;;;;5097609;28;20560;-72
2023/01/27 02:50:17;;;;;;;4.28;2.72;;;4.70;99.90;;;;;;5092985;28;20058;-70
2023/01/27 02:52:42;;;;;;;2.60;2.38;;;4.90;99.90;;;;;;5092399;28;20372;-70
2023/01/27 02:55:08;;;;;;;3.35;2.17;;;4.90;99.90;;;;;;5097964;28;20039;-70
2023/01/27 02:57:34;;;;;;;2.20;2.10;;;4.90;99.90;;;;;;5089101;28;20058;-70
2023/01/27 03:00:00;;;;;;;3.42;2.10;;;4.90;99.90;;;;;;5095751;28;20469;-72
2023/01/27 03:02:29;;;;;;;3.13;2.20;;;4.90;99.90;;;;;;5096642;28;20113;-70
2023/01/27 03:04:56;;;;;;;3.05;2.10;;;4.80;99.90;;;;;;5080540;28;20109;-72
2023/01/27 03:07:22;;;;;;;2.45;2.25;;;4.80;99.90;;;;;;5098774;28;20050;-70
2023/01/27 03:09:48;;;;;;;2.72;1.95;;;4.80;99.90;;;;;;5081606;28;20043;-70
2023/01/27 03:12:20;;;;;;;3.65;1.88;;;4.80;99.90;;;;;;5089821;28;20486;-70
2023/01/27 03:20:21;;;;;;;3.20;2.40;;;4.80;99.90;;;;;;5084928;28;20580;-70
2023/01/27 03:22:47;;;;;;;2.83;2.40;;;4.80;99.90;;;;;;5101373;28;20043;-70
2023/01/27 03:25:13;;;;;;;7.85;2.53;;;4.80;99.90;;;;;;5095034;28;20185;-71
2023/01/27 03:27:38;;;;;;;3.35;2.10;;;4.80;99.90;;;;;;5090194;28;20652;-70
2023/01/27 03:30:05;;;;;;;3.03;2.47;;;4.80;99.90;;;;;;5097059;28;20048;-70
2023/01/27 03:32:31;;;;;;;4.82;2.20;;;4.80;99.90;;;;;;5100255;28;20044;-71
2023/01/27 03:34:59;;;;;;;3.15;2.15;;;4.70;99.90;;;;;;5086921;28;20039;-70
2023/01/27 03:48:35;;;;;;;2.53;2.10;;;4.70;99.90;;;;;;5097190;28;20126;-70
2023/01/27 03:51:03;;;;;;;5.22;2.70;;;4.70;99.90;;;;;;5085309;28;20043;-72
2023/01/27 03:53:28;;;;;;;3.45;2.33;;;4.70;99.90;;;;;;5092044;28;20861;-72
2023/01/27 03:55:54;;;;;;;3.92;2.45;;;4.70;99.90;;;;;;5093884;28;20051;-71
2023/01/27 03:58:32;;;;;;;2.50;2.10;;;4.70;99.90;;;;;;5093472;28;20055;-70
2023/01/27 04:01:04;;;;;;;5.97;2.80;;;4.60;99.90;;;;;;5090147;28;20142;-70
2023/01/27 04:09:17;;;;;;;7.43;2.70;;;4.60;99.90;;;;;;5091860;28;20087;-70
2023/01/27 04:11:54;;;;;;;;;;;4.60;99.90;;;;;;5091815;28;20066;-70
2023/01/27 04:14:22;;;;;;;3.67;2.25;;;4.60;99.90;;;;;;5098088;28;19930;-70
2023/01/27 04:16:49;;;;;;;5.45;2.63;;;4.60;99.90;;;;;;5094703;28;20122;-70
2023/01/27 04:19:16;;;;;;;3.47;2.20;;;4.60;99.90;;;;;;5096294;28;20063;-69
2023/01/27 04:21:42;;;;;;;3.60;2.78;;;4.60;99.90;;;;;;5092667;28;20119;-70
2023/01/27 04:24:16;;;;;;;5.90;3.08;;;4.60;99.90;;;;;;5094976;28;20055;-69
2023/01/27 04:26:45;;;;;;;5.22;2.72;;;4.80;99.90;;;;;;5094276;28;20043;-69
2023/01/27 04:29:14;;;;;;;2.92;2.65;;;4.60;99.90;;;;;;5096049;28;20075;-71
2023/01/27 04:31:41;;;;;;;4.20;2.60;;;4.60;99.90;;;;;;5093372;28;20044;-69
2023/01/27 04:34:07;;;;;;;3.47;2.63;;;4.60;99.90;;;;;;5093640;28;20056;-68
2023/01/27 04:36:33;;;;;;;4.90;2.88;;;4.50;99.90;;;;;;5088841;28;20077;-72
2023/01/27 04:38:59;;;;;;;2.97;2.78;;;4.60;99.90;;;;;;5086358;28;20545;-69
2023/01/27 04:41:25;;;;;;;4.85;3.03;;;4.60;99.90;;;;;;5092435;28;20043;-69
2023/01/27 04:43:50;;;;;;;3.50;2.42;;;4.50;99.90;;;;;;5094962;28;20325;-69
2023/01/27 04:46:16;;;;;;;4.43;2.70;;;4.60;99.90;;;;;;5098880;28;20131;-70
2023/01/27 04:48:42;;;;;;;2.92;2.63;;;4.50;99.90;;;;;;5099247;28;20867;-68
2023/01/27 04:51:07;;;;;;;3.63;2.72;;;4.60;99.90;;;;;;5092890;28;20047;-70
2023/01/27 04:53:33;;;;;;;4.43;2.53;;;4.60;99.90;;;;;;5098225;28;20052;-71
2023/01/27 04:56:05;;;;;;;4.10;2.40;;;4.50;99.90;;;;;;5094044;28;20040;-73
2023/01/27 04:58:31;;;;;;;3.80;3.25;;;4.60;99.90;;;;;;5098891;28;20109;-69
2023/01/27 05:00:56;;;;;;;3.05;2.50;;;4.60;99.90;;;;;;5095398;28;20050;-68
2023/01/27 05:03:22;;;;;;;3.72;2.45;;;4.60;99.90;;;;;;5084938;28;20052;-71
2023/01/27 05:05:48;;;;;;;4.28;2.67;;;4.60;99.90;;;;;;5097820;28;20092;-73
2023/01/27 05:08:13;;;;;;;7.15;2.95;;;4.50;99.90;;;;;;5097641;28;20050;-74
2023/01/27 05:10:43;;;;;;;7.35;3.17;;;4.60;99.90;;;;;;5091191;28;20039;-71
2023/01/27 05:13:08;;;;;;;3.20;2.90;;;4.60;99.90;;;;;;5077759;28;20142;-71
2023/01/27 05:15:34;;;;;;;4.95;2.60;;;4.50;99.90;;;;;;5094359;28;20114;-70
2023/01/27 05:18:00;;;;;;;5.90;3.40;;;4.60;99.90;;;;;;5099166;28;20071;-70
2023/01/27 05:20:25;;;;;;;4.35;3.85;;;4.50;99.90;;;;;;5086367;28;20047;-72
2023/01/27 05:23:33;;;;;;;7.05;3.42;;;4.50;99.90;;;;;;5098780;28;20040;-72
2023/01/27 05:25:36;;;;;;;5.93;3.72;;;4.50;99.90;;;;;;5087573;28;20138;-69
2023/01/27 05:28:02;;;;;;;6.68;4.47;;;4.50;99.90;;;;;;5084794;28;20109;-69
2023/01/27 05:30:28;;;;;;;4.10;3.70;;;4.50;99.90;;;;;;5079240;28;20205;-70
2023/01/27 05:32:53;;;;;;;4.40;3.63;;;4.50;99.90;;;;;;5096902;28;20048;-71
2023/01/27 05:35:19;;;;;;;5.57;3.30;;;4.50;99.90;;;;;;5093105;28;20065;-70
2023/01/27 05:37:45;;;;;;;4.63;3.95;;;4.60;99.90;;;;;;5089477;28;20040;-71
2023/01/27 05:40:11;;;;;;;5.53;3.28;;;4.50;99.90;;;;;;5095978;28;20097;-71
2023/01/27 05:42:37;;;;;;;4.07;3.08;;;4.50;99.90;;;;;;5096156;28;20086;-70
2023/01/27 05:45:03;;;;;;;5.95;3.22;;;4.50;99.90;;;;;;5099106;28;20143;-70
2023/01/27 05:47:28;;;;;;;8.93;3.88;;;4.40;99.90;;;;;;5096660;28;20062;-71
2023/01/27 05:49:54;;;;;;;2.40;2.20;;;4.40;99.90;;;;;;5098750;28;20043;-70
2023/01/27 05:52:20;;;;;;;6.32;3.10;;;4.40;99.90;;;;;;5097285;28;20052;-70
2023/01/27 05:54:45;;;;;;;5.68;2.60;;;4.40;99.90;;;;;;5096482;28;20039;-70
2023/01/27 05:57:11;;;;;;;5.20;3.10;;;4.40;99.90;;;;;;5095435;28;20044;-70
2023/01/27 05:59:37;;;;;;;3.25;2.85;;;4.40;99.90;;;;;;5096835;28;20132;-70
2023/01/27 06:02:02;;;;;;;2.42;2.33;;;4.40;99.90;;;;;;5094403;28;20063;-70
2023/01/27 06:04:28;;;;;;;3.67;2.50;;;4.40;99.90;;;;;;5095215;28;20055;-70
2023/01/27 06:06:54;;;;;;;2.42;2.08;;;4.40;99.90;;;;;;5084651;28;20552;-71
2023/01/27 06:09:19;;;;;;;3.67;2.50;;;4.60;99.90;;;;;;5100944;28;20146;-70
2023/01/27 06:11:46;;;;;;;3.45;2.10;;;4.40;99.90;;;;;;5083717;28;20156;-70
2023/01/27 06:14:12;;;;;;;11.73;3.30;;;4.40;99.90;;;;;;5092107;28;20062;-70
2023/01/27 06:16:37;;;;;;;4.28;3.28;;;4.40;99.90;;;;;;5096443;28;20036;-70
2023/01/27 06:19:03;;;;;;;2.58;1.90;;;4.40;99.90;;;;;;5082932;28;20052;-71
2023/01/27 06:21:29;;;;;;;3.78;2.15;;;4.40;99.90;;;;;;5095573;28;20043;-69
2023/01/27 06:23:54;;;;;;;3.08;2.28;;;4.40;99.90;;;;;;5101804;28;20047;-70
2023/01/27 06:26:20;;;;;;;5.38;2.28;;;4.40;99.90;;;;;;5088694;28;20047;-71
2023/01/27 06:28:46;;;;;;;6.03;2.25;;;4.30;99.90;;;;;;5093832;28;20075;-70
2023/01/27 06:31:18;;;;;;;2.65;2.00;;;4.40;99.90;;;;;;5076079;28;20134;-70
2023/01/27 06:33:44;;;;;;;4.63;2.15;;;4.30;99.90;;;;;;5086556;28;20124;-70
2023/01/27 06:36:12;;;;;;;2.65;2.22;;;4.40;99.90;;;;;;5095596;28;20051;-71
2023/01/27 06:38:38;;;;;;;3.83;2.15;;;4.40;99.90;;;;;;5097774;27;20328;-71
2023/01/27 06:41:07;;;;;;;3.92;2.53;;;4.30;99.90;;;;;;5097491;28;20101;-70
2023/01/27 06:43:32;;;;;;;4.63;2.30;;;4.30;99.90;;;;;;5098514;28;20067;-71
2023/01/27 06:45:58;;;;;;;4.05;2.25;;;4.30;99.90;;;;;;5098301;28;20505;-69
2023/01/27 06:48:25;;;;;;;2.53;2.05;;;4.30;99.90;;;;;;5097556;28;20048;-70
2023/01/27 06:50:55;;;;;;;4.55;2.15;;;4.30;99.90;;;;;;5099546;28;20449;-71
2023/01/27 06:53:21;;;;;;;2.72;2.15;;;4.30;99.90;;;;;;5098647;28;20079;-71
2023/01/27 06:55:46;;;;;;;3.42;2.38;;;4.50;99.90;;;;;;5098129;28;20128;-70
2023/01/27 06:58:14;;;;;;;2.97;1.92;;;4.30;99.90;;;;;;5096055;28;20051;-69
2023/01/27 07:00:40;;;;;;;2.75;2.17;;;4.30;99.90;;;;;;5100075;28;20054;-70
2023/01/27 07:03:09;;;;;;;2.60;1.90;;;4.30;99.90;;;;;;5092172;28;20047;-70
2023/01/27 07:05:36;;;;;;;4.03;2.15;;;4.50;99.90;;;;;;5099226;28;20491;-69
2023/01/27 07:08:02;;;;;;;5.97;2.28;;;4.20;99.90;;;;;;5100189;28;20142;-70
2023/01/27 07:10:27;;;;;;;5.90;2.47;;;4.30;99.90;;;;;;5085610;28;20055;-69
2023/01/27 07:13:04;;;;;;;5.70;2.42;;;4.30;99.90;;;;;;5087710;28;20536;-71
2023/01/27 07:15:31;;;;;;;2.17;2.00;;;4.30;99.90;;;;;;5081270;28;20084;-70
2023/01/27 07:18:00;;;;;;;3.75;1.80;;;4.30;99.90;;;;;;5082342;28;20774;-70
2023/01/27 07:20:27;;;;;;;3.03;2.45;;;4.30;99.90;;;;;;5084730;28;20039;-77
2023/01/27 07:22:57;;;;;;;3.25;2.38;;;4.30;99.90;;;;;;5088790;28;20044;-71
2023/01/27 07:25:22;;;;;;;2.58;2.38;;;4.30;99.90;;;;;;5076576;28;20051;-70
2023/01/27 07:27:48;;;;;;;4.07;2.40;;;4.30;99.90;;;;;;5078487;28;20043;-70
2023/01/27 07:30:14;;;;;;;2.60;2.13;;;4.30;99.90;;;;;;5090052;28;20044;-71
2023/01/27 07:32:40;;;;;;;4.45;2.40;;;4.30;99.90;;;;;;5095912;28;20039;-70
2023/01/27 07:35:06;;;;;;;4.10;2.67;;;4.20;99.90;;;;;;5096864;28;20189;-69
2023/01/27 07:37:31;;;;;;;5.60;3.88;;;4.20;99.90;;;;;;5094453;28;20048;-69
2023/01/27 07:39:57;;;;;;;5.05;3.10;;;4.20;99.90;;;;;;5089556;28;20058;-69
2023/01/27 07:42:23;;;;;;;6.22;3.83;;;4.10;99.90;;;;;;5096681;28;20094;-68
2023/01/27 07:44:48;;;;;;;4.70;3.30;;;4.00;99.90;;;;;;5081773;28;20060;-69
2023/01/27 07:47:14;;;;;;;5.47;3.63;;;4.10;99.90;;;;;;5077740;28;20052;-70
2023/01/27 07:49:40;;;;;;;5.35;3.60;;;4.00;99.90;;;;;;5079745;28;20110;-69
2023/01/27 07:52:05;;;;;;;5.07;3.67;;;4.00;99.90;;;;;;5089371;28;20044;-70
2023/01/27 07:54:31;;;;;;;8.65;3.67;;;4.00;99.90;;;;;;5077075;28;20046;-71
2023/01/27 07:57:00;;;;;;;5.32;3.65;;;4.00;99.90;;;;;;5076782;28;20048;-71
2023/01/27 07:59:27;;;;;;;5.93;3.30;;;4.00;99.90;;;;;;5090897;28;20329;-71
2023/01/27 08:01:53;;;;;;;3.83;3.08;;;4.00;99.90;;;;;;5088179;28;20153;-70
2023/01/27 08:04:18;;;;;;;5.65;3.47;;;4.00;99.90;;;;;;5093677;28;20048;-71
2023/01/27 08:06:44;;;;;;;3.67;3.28;;;4.00;99.90;;;;;;5077782;28;20048;-69
2023/01/27 08:09:10;;;;;;;5.68;3.70;;;4.00;99.90;;;;;;5079300;28;20495;-69
2023/01/27 08:11:36;;;;;;;5.15;2.90;;;4.00;99.90;;;;;;5082238;28;20086;-70
2023/01/27 08:14:02;;;;;;;5.20;3.88;;;4.00;99.90;;;;;;5097960;28;20051;-69
2023/01/27 08:16:27;;;;;;;4.63;3.47;;;4.00;99.90;;;;;;5091118;28;20048;-70
2023/01/27 08:18:53;;;;;;;7.18;3.03;;;4.00;99.90;;;;;;5086284;28;20058;-69
2023/01/27 08:21:19;;;;;;;8.10;3.63;;;4.00;99.90;;;;;;5094818;28;20471;-69
2023/01/27 08:23:45;;;;;;;8.80;3.30;;;3.90;99.90;;;;;;5096523;28;20156;-70
2023/01/27 08:26:11;;;;;;;4.80;3.33;;;3.90;99.90;;;;;;5093252;28;20124;-70
2023/01/27 08:28:38;;;;;;;6.15;3.70;;;4.30;99.90;;;;;;5091263;28;20059;-69
2023/01/27 08:31:14;;;;;;;7.03;3.75;;;3.80;99.90;;;;;;5093293;28;20047;-72
2023/01/27 08:33:41;;;;;;;7.60;3.42;;;3.80;99.90;;;;;;5093540;28;20047;-69
2023/01/27 08:36:10;;;;;;;4.38;3.35;;;3.80;99.90;;;;;;5095208;28;20043;-69
2023/01/27 08:38:36;;;;;;;5.20;3.78;;;3.80;99.90;;;;;;5094125;28;20904;-70
2023/01/27 08:41:05;;;;;;;5.15;3.58;;;3.60;99.90;;;;;;5091105;28;20043;-69
2023/01/27 08:43:31;;;;;;;5.30;3.38;;;3.80;99.90;;;;;;5093817;28;20056;-70
2023/01/27 08:45:59;;;;;;;5.03;3.30;;;3.90;99.90;;;;;;5092075;28;20051;-70
2023/01/27 08:48:29;;;;;;;6.28;3.80;;;3.90;99.90;;;;;;5094329;28;20067;-72
2023/01/27 08:50:55;;;;;;;5.53;3.55;;;3.90;99.90;;;;;;5092849;28;20131;-71
2023/01/27 08:53:22;;;;;;;4.68;3.53;;;3.90;99.90;;;;;;5095041;28;20679;-70
2023/01/27 08:55:48;;;;;;;7.78;3.83;;;4.00;99.90;;;;;;5095936;28;20051;-69
2023/01/27 08:58:14;;;;;;;4.47;3.17;;;4.10;99.90;;;;;;5091366;28;20053;-74
2023/01/27 09:00:40;;;;;;;5.72;3.75;;;4.20;99.90;;;;;;5096400;28;20325;-72
2023/01/27 09:03:05;;;;;;;6.28;3.55;;;4.10;99.90;;;;;;5096847;28;20051;-70
2023/01/27 09:05:34;;;;;;;5.57;3.50;;;4.20;99.90;;;;;;5095322;28;20496;-70
2023/01/27 09:07:59;;;;;;;6.22;4.07;;;4.20;99.90;;;;;;5092190;28;20047;-70
2023/01/27 09:10:25;;;;;;;3.50;3.20;;;4.20;99.90;;;;;;5092555;28;20043;-71
2023/01/27 09:12:50;;;;;;;8.80;3.70;;;4.60;99.90;;;;;;5076962;28;20052;-70
2023/01/27 09:15:16;;;;;;;6.60;3.65;;;4.20;99.90;;;;;;5094346;28;20048;-74
2023/01/27 09:17:42;;;;;;;9.20;4.43;;;4.30;99.90;;;;;;5091226;28;20841;-70
2023/01/27 09:20:08;;;;;;;9.23;4.22;;;4.30;99.90;;;;;;5094417;28;20451;-69
2023/01/27 09:22:35;;;;;;;5.88;4.00;;;4.30;99.90;;;;;;5088313;28;20767;-69
2023/01/27 09:25:02;;;;;;;5.07;3.50;;;4.30;99.90;;;;;;5097475;28;20721;-70
2023/01/27 09:27:28;;;;;;;4.90;3.65;;;4.30;99.90;;;;;;5100628;28;20076;-69
2023/01/27 09:29:53;;;;;;;7.13;3.60;;;4.40;99.90;;;;;;5093896;28;20051;-69
2023/01/27 09:32:19;;;;;;;6.90;3.28;;;4.30;99.90;;;;;;5097262;28;20100;-71
2023/01/27 09:34:45;;;;;;;5.50;3.60;;;4.40;99.90;;;;;;5097369;28;20721;-70
2023/01/27 09:37:12;;;;;;;4.45;3.35;;;4.50;99.90;;;;;;5099284;28;20056;-71
2023/01/27 09:39:44;;;;;;;6.78;3.35;;;4.50;99.90;;;;;;5094106;28;20052;-69
2023/01/27 09:42:48;;;;;;;5.35;3.17;;;4.50;99.90;;;;;;5091324;28;20091;-71
2023/01/27 09:45:47;;;;;;;7.10;3.60;;;4.60;99.90;;;;;;5098955;28;20409;-71
2023/01/27 09:48:35;;;;;;;4.68;2.88;;;4.60;99.90;;;;;;5095000;28;20321;-68
2023/01/27 09:51:12;;;;;;;3.30;2.63;;;4.70;99.90;;;;;;5100438;28;20040;-69
2023/01/27 09:54:13;;;;;;;3.78;2.63;;;4.70;99.90;;;;;;5101830;28;20159;-71
2023/01/27 09:56:42;;;;;;;4.25;3.15;;;4.80;99.90;;;;;;5095803;28;20047;-71
2023/01/27 09:59:17;;;;;;;4.93;3.08;;;4.80;99.90;;;;;;5102880;28;20147;-70
2023/01/27 10:01:42;;;;;;;3.95;3.25;;;4.80;99.90;;;;;;5087574;28;20113;-71
2023/01/27 10:04:19;;;;;;;3.83;2.88;;;4.30;99.90;;;;;;5084664;28;20501;-69
2023/01/27 10:06:51;;;;;;;4.30;3.20;;;5.10;99.90;;;;;;5086517;28;20048;-70
2023/01/27 10:09:34;;;;;;;4.60;2.72;;;5.20;99.90;;;;;;5085682;28;20127;-70
2023/01/27 10:12:38;;;;;;;3.05;2.75;;;5.20;99.90;;;;;;5083327;28;20180;-71
2023/01/27 10:15:17;;;;;;;3.67;2.65;;;5.30;99.90;;;;;;5077630;28;20100;-71
2023/01/27 10:17:43;;;;;;;3.50;2.53;;;6.10;99.90;;;;;;5101579;28;20059;-70
2023/01/27 10:20:26;;;;;;;3.22;2.28;;;5.30;99.90;;;;;;5090281;28;20047;-70
2023/01/27 10:23:02;;;;;;;2.13;2.03;;;5.20;99.90;;;;;;5101096;28;20048;-70
2023/01/27 10:25:39;;;;;;;2.50;2.30;;;5.10;99.90;;;;;;5089080;28;20570;-70
2023/01/27 10:28:19;;;;;;;1.85;1.70;;;5.00;99.90;;;;;;5088914;28;20052;-69
2023/01/27 10:30:59;;;;;;;1.90;1.75;;;4.90;99.90;;;;;;5102281;28;20051;-69
2023/01/27 10:33:47;;;;;;;3.00;2.80;;;4.90;99.90;;;;;;5088153;27;20051;-71
2023/01/27 10:36:18;;;;;;;2.22;2.03;;;4.80;99.90;;;;;;5097628;28;20160;-69
2023/01/27 10:38:59;;;;;;;2.75;2.35;;;4.80;99.90;;;;;;5098291;28;20580;-69
2023/01/27 10:41:51;;;;;;;3.47;2.05;;;4.80;99.90;;;;;;5099036;28;20143;-70
2023/01/27 10:44:25;;;;;;;2.67;2.13;;;4.90;99.90;;;;;;5100147;28;20083;-70
2023/01/27 10:47:17;;;;;;;4.97;2.60;;;4.80;99.90;;;;;;5099258;28;20173;-71
2023/01/27 10:49:50;;;;;;;2.67;2.30;;;4.80;99.90;;;;;;5086749;28;20048;-69
2023/01/27 10:52:29;;;;;;;3.40;3.10;;;4.70;99.90;;;;;;5093159;28;20852;-69
2023/01/27 10:55:20;;;;;;;3.05;2.75;;;4.70;99.90;;;;;;5089033;28;20040;-68
2023/01/27 10:58:05;;;;;;;3.17;2.55;;;4.70;99.90;;;;;;5084276;28;20048;-70
2023/01/27 11:00:44;;;;;;;3.13;2.80;;;4.70;99.90;;;;;;5082803;28;20080;-70
2023/01/27 11:03:37;;;;;;;2.65;2.42;;;4.70;99.90;;;;;;5088305;28;20074;-70
2023/01/27 11:06:08;;;;;;;2.67;2.40;;;4.70;99.90;;;;;;5094842;28;20052;-68
2023/01/27 11:08:38;;;;;;;3.97;2.47;;;4.80;99.90;;;;;;5096243;28;20043;-68
2023/01/27 11:14:24;;;;;;;2.85;2.38;;;4.80;99.90;;;;;;5087603;28;21013;-69
2023/01/27 11:17:13;;;;;;;4.85;2.33;;;4.80;99.90;;;;;;5098214;28;20127;-70
2023/01/27 11:20:03;;;;;;;2.20;2.00;;;4.80;99.90;;;;;;5090371;28;20048;-70
2023/01/27 11:22:49;;;;;;;2.55;2.10;;;4.90;99.90;;;;;;5058173;28;20101;-69
2023/01/27 11:25:30;;;;;;;2.58;2.10;;;4.90;99.90;;;;;;5099941;28;20126;-69
2023/01/27 11:28:05;;;;;;;1.95;1.85;;;4.80;99.90;;;;;;5098009;28;20443;-70
2023/01/27 11:30:41;;;;;;;3.22;2.92;;;4.90;99.90;;;;;;5099097;28;20232;-69
2023/01/27 11:33:30;;;;;;;2.53;2.08;;;4.90;99.90;;;;;;5099142;28;20225;-70
2023/01/27 11:35:56;;;;;;;5.68;2.17;;;4.90;99.90;;;;;;5097373;28;20494;-71
2023/01/27 11:38:22;;;;;;;1.95;1.85;;;4.90;99.90;;;;;;5097473;28;20518;-70
2023/01/27 11:40:50;;;;;;;2.13;1.95;;;4.90;99.90;;;;;;5098158;28;20136;-71
2023/01/27 11:43:25;;;;;;;2.00;1.90;;;4.80;99.90;;;;;;5099040;28;20055;-70
2023/01/27 11:46:00;;;;;;;2.20;2.00;;;4.80;99.90;;;;;;5090990;28;20511;-72
2023/01/27 11:48:40;;;;;;;2.13;1.83;;;4.80;99.90;;;;;;5099285;28;20044;-70
2023/01/27 11:51:21;;;;;;;2.13;1.80;;;4.90;99.90;;;;;;5099768;28;20086;-69
2023/01/27 11:53:56;;;;;;;2.22;2.03;;;4.90;99.90;;;;;;5101053;28;20493;-69
2023/01/27 11:56:23;;;;;;;2.40;2.20;;;4.90;99.90;;;;;;5100192;28;20055;-71
2023/01/27 11:59:02;;;;;;;2.33;2.15;;;4.90;99.90;;;;;;5101449;28;20048;-71
2023/01/27 12:01:43;;;;;;;2.83;2.63;;;4.90;99.90;;;;;;5083998;28;20035;-69
2023/01/27 12:04:19;;;;;;;2.72;2.35;;;4.90;99.90;;;;;;5095580;28;20112;-71
2023/01/27 12:06:52;;;;;;;2.13;1.92;;;4.80;99.90;;;;;;5097639;28;20127;-70
2023/01/27 12:09:31;;;;;;;;;;;4.80;99.90;;;;;;5089156;28;20048;-71
2023/01/27 12:12:12;;;;;;;2.75;2.45;;;4.80;99.90;;;;;;5095061;28;19931;-71
2023/01/27 12:14:38;;;;;;;2.38;2.08;;;4.80;99.90;;;;;;5065919;28;20055;-71
2023/01/27 12:17:06;;;;;;;2.53;2.15;;;4.80;99.90;;;;;;5097887;28;20051;-71
2023/01/27 12:19:39;;;;;;;2.38;2.25;;;4.80;99.90;;;;;;5087501;28;20047;-71
2023/01/27 12:22:17;;;;;;;2.00;1.90;;;4.20;99.90;;;;;;5089979;28;20044;-71
2023/01/27 12:24:49;;;;;;;2.33;1.95;;;4.70;99.90;;;;;;5088259;28;20047;-70
2023/01/27 12:27:24;;;;;;;2.92;2.47;;;4.70;99.90;;;;;;5069301;28;20066;-69
2023/01/27 12:29:55;;;;;;;2.20;2.00;;;5.60;99.90;;;;;;5092941;28;20122;-69
2023/01/27 12:32:29;;;;;;;2.28;1.95;;;4.70;99.90;;;;;;5096673;28;20075;-71
2023/01/27 12:34:55;;;;;;;2.20;1.98;;;4.70;99.90;;;;;;5091682;28;20043;-70
2023/01/27 12:37:30;;;;;;;2.20;2.00;;;4.70;99.90;;;;;;5097620;28;20048;-71
2023/01/27 12:40:02;;;;;;;2.50;2.30;;;4.70;99.90;;;;;;5087824;28;20105;-70
2023/01/27 12:42:40;;;;;;;1.80;1.70;;;4.60;99.90;;;;;;5089978;28;20079;-70
2023/01/27 12:45:33;;;;;;;1.88;1.77;;;4.60;99.90;;;;;;5095250;28;20501;-70
2023/01/27 12:48:08;;;;;;;1.67;1.58;;;4.70;99.90;;;;;;5085935;28;20040;-71
2023/01/27 12:50:37;;;;;;;2.17;1.98;;;4.70;99.90;;;;;;5089370;28;20059;-72
2023/01/27 12:53:13;;;;;;;2.17;2.00;;;4.70;99.90;;;;;;5097126;28;20146;-70
2023/01/27 12:55:49;;;;;;;2.03;1.92;;;4.70;99.90;;;;;;5090512;28;20039;-70
2023/01/27 12:58:39;;;;;;;2.80;2.22;;;4.80;99.90;;;;;;5095738;28;20069;-70
2023/01/27 13:01:18;;;;;;;2.72;2.40;;;4.80;99.90;;;;;;5091945;28;20070;-70
2023/01/27 13:03:47;;;;;;;3.10;2.80;;;4.70;99.90;;;;;;5089902;28;20621;-71
2023/01/27 13:06:17;;;;;;;2.58;2.38;;;4.70;99.90;;;;;;5091502;28;20048;-69
2023/01/27 13:08:43;;;;;;;3.55;2.85;;;4.60;99.90;;;;;;5092137;28;20048;-69
2023/01/27 13:11:10;;;;;;;2.50;2.30;;;4.60;99.90;;;;;;5093312;28;20044;-71
2023/01/27 13:13:36;;;;;;;2.40;2.30;;;4.60;99.90;;;;;;5089413;28;20602;-71
2023/01/27 13:16:14;;;;;;;2.70;2.50;;;4.60;99.90;;;;;;5097214;28;20055;-69
2023/01/27 13:18:41;;;;;;;3.10;2.85;;;4.60;99.90;;;;;;5093659;28;20454;-70
2023/01/27 13:21:17;;;;;;;2.58;2.35;;;4.60;99.90;;;;;;5096964;28;20047;-68
2023/01/27 13:23:47;;;;;;;3.28;2.58;;;4.50;99.90;;;;;;5094971;28;20055;-69
2023/01/27 13:26:17;;;;;;;2.95;2.72;;;4.60;99.90;;;;;;5096219;28;20083;-69
2023/01/27 13:28:56;;;;;;;3.58;3.28;;;4.70;99.90;;;;;;5098867;28;20055;-69
2023/01/27 13:31:34;;;;;;;3.25;3.05;;;4.60;99.90;;;;;;5098613;28;20043;-69
2023/01/27 13:34:30;;;;;;;4.15;3.42;;;4.60;99.90;;;;;;5096185;28;20043;-72
2023/01/27 13:37:10;;;;;;;3.10;2.65;;;4.60;99.90;;;;;;5054295;28;20316;-72
2023/01/27 13:39:39;;;;;;;3.25;2.95;;;4.60;99.90;;;;;;5099884;28;20043;-70
2023/01/27 13:42:22;;;;;;;3.63;3.00;;;4.60;99.90;;;;;;5091977;28;20066;-69
2023/01/27 13:44:55;;;;;;;3.83;3.42;;;4.60;99.90;;;;;;5097709;28;20169;-71
2023/01/27 13:47:29;;;;;;;8.32;4.00;;;4.50;99.90;;;;;;5095662;28;20083;-68